Portada
METAR-TAF:

METAR-TAF

Aeropuertos :

Aeropuerto de Zagreb-Franjo Tuđman

Zagreb, Croacia

latitud: 45-44N, longitud: 016-04E, altitud: 106 m

Observación

El informe se hizo hace 25 minutos, a las 21:00 UTC
Viento 6 kt del norte-noreste, variando entre norte-noroeste y este-noreste
Temperatura 3°C
Humedad 65%
Presión 1029 hPa
Visibilidad 10 km o más
sin nubes por debajo de 1500 m y sin presencia de cumulonimbus.

METAR: LDZA 172100Z 03006KT 340V070 CAVOK 03/M03 Q1029 NOSIG

Hora: 22:25 (21:25 UTC)

Pronóstico

El informe se hizo hace 4 horas y 0 minutos, a las 17:25 UTC
Pronóstico válido del 17 a las 18 UTC al 18 a las 18 UTC
Viento 8 kt del noreste
Visibilidad 10 km o más
Cielo nuboso a una altura de 3000 ft

TAF: LDZA 171725Z 1718/1818 05008KT 9999 BKN030 TX05/1813Z TN01/1806Z

Observaciones y pronósticos meteorológicos de más de 4000 aeropuertos (mensajes METAR y TAF).

Los puntos amarillos y rojos representan las estaciones disponibles.

Ponga el ratón en el punto deseado para ver el nombre de la estación.

Haga clic para ver las observaciones y los pronósticos meteorológicos.

Para cambiar el mapa : haga clic en los botones verdes con una cruz de color negro para hacer un zoom, en el botón verde con un guión para alejar o en las flechas verdes para mapas adyacentes.


METAR-TAF: